sensor_id;sensor_type;location;lat;lon;timestamp;pressure;altitude;pressure_sealevel;temperature;humidity
27643;BME280;15053;48.618;10.024;2023-01-20T00:01:29;93443.91;;;-0.52;81.03
27643;BME280;15053;48.618;10.024;2023-01-20T00:03:56;93461.66;;;-0.41;81.38
27643;BME280;15053;48.618;10.024;2023-01-20T00:06:24;93466.31;;;-0.38;81.25
27643;BME280;15053;48.618;10.024;2023-01-20T00:08:55;93467.88;;;-0.37;81.11
27643;BME280;15053;48.618;10.024;2023-01-20T00:11:23;93473.75;;;-0.36;81.53
27643;BME280;15053;48.618;10.024;2023-01-20T00:13:56;93475.22;;;-0.40;81.76
27643;BME280;15053;48.618;10.024;2023-01-20T00:16:24;93467.03;;;-0.42;80.96
27643;BME280;15053;48.618;10.024;2023-01-20T00:18:51;93467.25;;;-0.44;81.18
27643;BME280;15053;48.618;10.024;2023-01-20T00:21:19;93480.59;;;-0.42;81.84
27643;BME280;15053;48.618;10.024;2023-01-20T00:23:46;93472.69;;;-0.40;81.73
27643;BME280;15053;48.618;10.024;2023-01-20T00:26:15;93474.94;;;-0.44;81.08
27643;BME280;15053;48.618;10.024;2023-01-20T00:28:42;93471.31;;;-0.48;80.87
27643;BME280;15053;48.618;10.024;2023-01-20T00:31:16;93483.84;;;-0.46;81.83
27643;BME280;15053;48.618;10.024;2023-01-20T00:33:45;93478.47;;;-0.50;81.72
27643;BME280;15053;48.618;10.024;2023-01-20T00:36:13;93479.75;;;-0.47;81.34
27643;BME280;15053;48.618;10.024;2023-01-20T00:38:39;93481.53;;;-0.48;81.04
27643;BME280;15053;48.618;10.024;2023-01-20T00:41:06;93481.50;;;-0.53;81.63
27643;BME280;15053;48.618;10.024;2023-01-20T00:43:33;93492.25;;;-0.51;81.49
27643;BME280;15053;48.618;10.024;2023-01-20T00:46:01;93494.56;;;-0.49;80.99
27643;BME280;15053;48.618;10.024;2023-01-20T00:48:27;93487.59;;;-0.54;81.56
27643;BME280;15053;48.618;10.024;2023-01-20T00:50:54;93496.88;;;-0.48;82.28
27643;BME280;15053;48.618;10.024;2023-01-20T00:53:21;93491.47;;;-0.51;81.08
27643;BME280;15053;48.618;10.024;2023-01-20T00:55:47;93510.66;;;-0.49;81.90
27643;BME280;15053;48.618;10.024;2023-01-20T00:58:14;93511.44;;;-0.48;81.22
27643;BME280;15053;48.618;10.024;2023-01-20T01:00:40;93506.13;;;-0.47;81.59
27643;BME280;15053;48.618;10.024;2023-01-20T01:03:07;93511.97;;;-0.46;81.66
27643;BME280;15053;48.618;10.024;2023-01-20T01:05:35;93515.84;;;-0.44;81.35
27643;BME280;15053;48.618;10.024;2023-01-20T01:08:03;93508.66;;;-0.47;81.80
27643;BME280;15053;48.618;10.024;2023-01-20T01:10:30;93525.06;;;-0.43;81.62
27643;BME280;15053;48.618;10.024;2023-01-20T01:13:00;93521.97;;;-0.45;81.63
27643;BME280;15053;48.618;10.024;2023-01-20T01:15:27;93515.25;;;-0.51;81.97
27643;BME280;15053;48.618;10.024;2023-01-20T01:17:55;93528.56;;;-0.49;81.05
27643;BME280;15053;48.618;10.024;2023-01-20T01:20:23;93527.31;;;-0.46;81.83
27643;BME280;15053;48.618;10.024;2023-01-20T01:22:49;93523.50;;;-0.44;81.11
27643;BME280;15053;48.618;10.024;2023-01-20T01:25:16;93523.22;;;-0.47;81.40
27643;BME280;15053;48.618;10.024;2023-01-20T01:27:42;93529.97;;;-0.41;81.77
27643;BME280;15053;48.618;10.024;2023-01-20T01:30:09;93524.84;;;-0.41;80.90
27643;BME280;15053;48.618;10.024;2023-01-20T01:32:36;93513.28;;;-0.44;81.76
27643;BME280;15053;48.618;10.024;2023-01-20T01:35:03;93524.84;;;-0.41;81.76
27643;BME280;15053;48.618;10.024;2023-01-20T01:37:29;93527.63;;;-0.43;81.31
27643;BME280;15053;48.618;10.024;2023-01-20T01:39:56;93526.31;;;-0.45;81.47
27643;BME280;15053;48.618;10.024;2023-01-20T01:42:24;93529.13;;;-0.47;81.16
27643;BME280;15053;48.618;10.024;2023-01-20T01:47:38;93526.66;;;-0.58;81.38
27643;BME280;15053;48.618;10.024;2023-01-20T01:50:07;93532.56;;;-0.58;82.25
27643;BME280;15053;48.618;10.024;2023-01-20T01:52:39;93527.97;;;-0.56;81.79
27643;BME280;15053;48.618;10.024;2023-01-20T01:55:07;93522.34;;;-0.58;81.92
27643;BME280;15053;48.618;10.024;2023-01-20T01:57:34;93524.88;;;-0.58;81.83
27643;BME280;15053;48.618;10.024;2023-01-20T02:00:02;93527.34;;;-0.63;81.94
27643;BME280;15053;48.618;10.024;2023-01-20T02:02:38;93528.38;;;-0.64;81.51
27643;BME280;15053;48.618;10.024;2023-01-20T02:05:05;93534.50;;;-0.65;82.24
27643;BME280;15053;48.618;10.024;2023-01-20T02:07:32;93526.50;;;-0.69;82.36
27643;BME280;15053;48.618;10.024;2023-01-20T02:10:00;93531.81;;;-0.75;82.08
27643;BME280;15053;48.618;10.024;2023-01-20T02:12:27;93531.50;;;-0.79;81.29
27643;BME280;15053;48.618;10.024;2023-01-20T02:14:56;93541.41;;;-0.82;81.38
27643;BME280;15053;48.618;10.024;2023-01-20T02:20:35;93533.53;;;-0.97;82.38
27643;BME280;15053;48.618;10.024;2023-01-20T02:29:12;93536.34;;;-1.15;81.08
27643;BME280;15053;48.618;10.024;2023-01-20T02:32:06;93550.25;;;-1.23;82.08
27643;BME280;15053;48.618;10.024;2023-01-20T02:34:54;93548.41;;;-1.28;81.95
27643;BME280;15053;48.618;10.024;2023-01-20T02:37:27;93550.41;;;-1.30;82.13
27643;BME280;15053;48.618;10.024;2023-01-20T02:40:05;93553.44;;;-1.33;82.18
27643;BME280;15053;48.618;10.024;2023-01-20T02:42:40;93550.88;;;-1.33;82.11
27643;BME280;15053;48.618;10.024;2023-01-20T02:48:17;93552.50;;;-1.43;81.81
27643;BME280;15053;48.618;10.024;2023-01-20T02:50:51;93556.34;;;-1.41;82.04
27643;BME280;15053;48.618;10.024;2023-01-20T02:53:21;93558.13;;;-1.41;81.84
27643;BME280;15053;48.618;10.024;2023-01-20T02:55:52;93557.34;;;-1.42;81.66
27643;BME280;15053;48.618;10.024;2023-01-20T02:58:32;93564.03;;;-1.41;82.02
27643;BME280;15053;48.618;10.024;2023-01-20T03:01:10;93565.00;;;-1.42;82.17
27643;BME280;15053;48.618;10.024;2023-01-20T03:03:42;93556.03;;;-1.44;81.70
27643;BME280;15053;48.618;10.024;2023-01-20T03:06:16;93569.59;;;-1.44;82.14
27643;BME280;15053;48.618;10.024;2023-01-20T03:08:45;93559.38;;;-1.44;81.50
27643;BME280;15053;48.618;10.024;2023-01-20T03:11:14;93572.13;;;-1.44;82.02
27643;BME280;15053;48.618;10.024;2023-01-20T03:13:57;93569.34;;;-1.42;81.95
27643;BME280;15053;48.618;10.024;2023-01-20T03:16:25;93556.81;;;-1.44;82.09
27643;BME280;15053;48.618;10.024;2023-01-20T03:18:54;93565.47;;;-1.45;81.92
27643;BME280;15053;48.618;10.024;2023-01-20T03:21:20;93562.13;;;-1.45;81.70
27643;BME280;15053;48.618;10.024;2023-01-20T03:23:49;93558.72;;;-1.51;82.32
27643;BME280;15053;48.618;10.024;2023-01-20T03:26:18;93570.38;;;-1.43;82.40
27643;BME280;15053;48.618;10.024;2023-01-20T03:28:46;93566.50;;;-1.46;82.36
27643;BME280;15053;48.618;10.024;2023-01-20T03:31:25;93572.66;;;-1.42;82.31
27643;BME280;15053;48.618;10.024;2023-01-20T03:33:55;93573.66;;;-1.43;83.02
27643;BME280;15053;48.618;10.024;2023-01-20T03:36:24;93573.22;;;-1.40;83.15
27643;BME280;15053;48.618;10.024;2023-01-20T03:38:52;93565.56;;;-1.40;83.04
27643;BME280;15053;48.618;10.024;2023-01-20T03:44:05;93572.84;;;-1.32;83.39
27643;BME280;15053;48.618;10.024;2023-01-20T03:49:35;93576.94;;;-1.31;83.67
27643;BME280;15053;48.618;10.024;2023-01-20T03:55:22;93572.09;;;-1.32;84.30
27643;BME280;15053;48.618;10.024;2023-01-20T03:58:00;93581.66;;;-1.23;84.12
27643;BME280;15053;48.618;10.024;2023-01-20T04:00:35;93579.66;;;-1.21;84.51
27643;BME280;15053;48.618;10.024;2023-01-20T04:03:07;93585.41;;;-1.13;84.03
27643;BME280;15053;48.618;10.024;2023-01-20T04:05:34;93588.03;;;-1.08;84.48
27643;BME280;15053;48.618;10.024;2023-01-20T04:08:05;93594.25;;;-1.04;85.13
27643;BME280;15053;48.618;10.024;2023-01-20T04:10:34;93594.53;;;-1.01;84.67
27643;BME280;15053;48.618;10.024;2023-01-20T04:13:02;93597.09;;;-1.01;85.11
27643;BME280;15053;48.618;10.024;2023-01-20T04:15:32;93597.41;;;-0.97;84.53
27643;BME280;15053;48.618;10.024;2023-01-20T04:20:37;93604.28;;;-0.98;85.02
27643;BME280;15053;48.618;10.024;2023-01-20T04:23:04;93610.97;;;-0.97;84.93
27643;BME280;15053;48.618;10.024;2023-01-20T04:25:32;93614.28;;;-0.96;84.39
27643;BME280;15053;48.618;10.024;2023-01-20T04:27:58;93612.75;;;-0.97;85.19
27643;BME280;15053;48.618;10.024;2023-01-20T04:30:25;93619.94;;;-0.94;84.43
27643;BME280;15053;48.618;10.024;2023-01-20T04:32:51;93622.03;;;-0.91;85.58
27643;BME280;15053;48.618;10.024;2023-01-20T04:35:18;93624.13;;;-0.88;85.45
27643;BME280;15053;48.618;10.024;2023-01-20T04:37:45;93621.34;;;-0.87;85.29
27643;BME280;15053;48.618;10.024;2023-01-20T04:40:11;93626.44;;;-0.87;85.73
27643;BME280;15053;48.618;10.024;2023-01-20T04:42:38;93628.22;;;-0.87;85.09
27643;BME280;15053;48.618;10.024;2023-01-20T04:45:04;93636.44;;;-0.85;85.57
27643;BME280;15053;48.618;10.024;2023-01-20T04:47:31;93630.00;;;-0.88;85.13
27643;BME280;15053;48.618;10.024;2023-01-20T04:49:59;93634.88;;;-0.86;85.44
27643;BME280;15053;48.618;10.024;2023-01-20T04:52:25;93636.44;;;-0.85;86.27
27643;BME280;15053;48.618;10.024;2023-01-20T04:54:52;93640.22;;;-0.88;85.79
27643;BME280;15053;48.618;10.024;2023-01-20T04:57:18;93643.00;;;-0.89;86.36
27643;BME280;15053;48.618;10.024;2023-01-20T04:59:45;93650.16;;;-0.91;86.60
27643;BME280;15053;48.618;10.024;2023-01-20T05:02:11;93650.91;;;-0.91;86.23
27643;BME280;15053;48.618;10.024;2023-01-20T05:04:37;93656.78;;;-0.90;86.40
27643;BME280;15053;48.618;10.024;2023-01-20T05:07:04;93657.56;;;-0.90;87.54
27643;BME280;15053;48.618;10.024;2023-01-20T05:09:30;93657.56;;;-0.90;87.74
27643;BME280;15053;48.618;10.024;2023-01-20T05:11:57;93661.44;;;-0.87;87.93
27643;BME280;15053;48.618;10.024;2023-01-20T05:14:23;93657.88;;;-0.86;86.93
27643;BME280;15053;48.618;10.024;2023-01-20T05:16:50;93672.22;;;-0.85;87.16
27643;BME280;15053;48.618;10.024;2023-01-20T05:19:16;93669.88;;;-0.87;88.12
27643;BME280;15053;48.618;10.024;2023-01-20T05:21:42;93677.00;;;-0.89;87.51
27643;BME280;15053;48.618;10.024;2023-01-20T05:24:09;93669.34;;;-0.89;88.04
27643;BME280;15053;48.618;10.024;2023-01-20T05:26:36;93674.00;;;-0.86;88.60
27643;BME280;15053;48.618;10.024;2023-01-20T05:29:02;93680.63;;;-0.85;88.69
27643;BME280;15053;48.618;10.024;2023-01-20T05:31:29;93690.66;;;-0.83;88.85
27643;BME280;15053;48.618;10.024;2023-01-20T05:33:57;93685.00;;;-0.85;88.41
27643;BME280;15053;48.618;10.024;2023-01-20T05:36:23;93690.19;;;-0.80;89.06
27643;BME280;15053;48.618;10.024;2023-01-20T05:38:49;93702.19;;;-0.81;89.24
27643;BME280;15053;48.618;10.024;2023-01-20T05:41:16;93698.31;;;-0.83;88.93
27643;BME280;15053;48.618;10.024;2023-01-20T05:43:42;93701.66;;;-0.83;88.83
27643;BME280;15053;48.618;10.024;2023-01-20T05:46:09;93715.19;;;-0.82;89.68
27643;BME280;15053;48.618;10.024;2023-01-20T05:48:35;93714.19;;;-0.81;89.63
27643;BME280;15053;48.618;10.024;2023-01-20T05:51:02;93718.06;;;-0.79;89.92
27643;BME280;15053;48.618;10.024;2023-01-20T05:53:29;93718.50;;;-0.82;89.76
27643;BME280;15053;48.618;10.024;2023-01-20T05:55:59;93725.19;;;-0.81;90.07
27643;BME280;15053;48.618;10.024;2023-01-20T05:58:27;93724.41;;;-0.81;90.29
27643;BME280;15053;48.618;10.024;2023-01-20T06:00:54;93718.50;;;-0.82;89.57
27643;BME280;15053;48.618;10.024;2023-01-20T06:03:20;93726.63;;;-0.85;89.84
27643;BME280;15053;48.618;10.024;2023-01-20T06:05:46;93730.22;;;-0.86;90.73
27643;BME280;15053;48.618;10.024;2023-01-20T06:08:14;93727.88;;;-0.87;90.13
27643;BME280;15053;48.618;10.024;2023-01-20T06:10:41;93731.44;;;-0.88;90.60
27643;BME280;15053;48.618;10.024;2023-01-20T06:13:07;93732.19;;;-0.88;91.05
27643;BME280;15053;48.618;10.024;2023-01-20T06:15:33;93736.56;;;-0.88;91.33
27643;BME280;15053;48.618;10.024;2023-01-20T06:18:00;93740.13;;;-0.89;90.68
27643;BME280;15053;48.618;10.024;2023-01-20T06:20:26;93736.56;;;-0.88;91.72
27643;BME280;15053;48.618;10.024;2023-01-20T06:22:54;93741.75;;;-0.83;91.56
27643;BME280;15053;48.618;10.024;2023-01-20T06:25:21;93737.63;;;-0.84;92.01
27643;BME280;15053;48.618;10.024;2023-01-20T06:27:47;93741.22;;;-0.85;92.09
27643;BME280;15053;48.618;10.024;2023-01-20T06:30:14;93745.09;;;-0.83;92.32
27643;BME280;15053;48.618;10.024;2023-01-20T06:32:40;93749.75;;;-0.80;92.30
27643;BME280;15053;48.618;10.024;2023-01-20T06:35:07;93748.19;;;-0.81;92.31
27643;BME280;15053;48.618;10.024;2023-01-20T06:37:36;93749.50;;;-0.78;92.73
27643;BME280;15053;48.618;10.024;2023-01-20T06:40:03;93758.25;;;-0.74;91.80
27643;BME280;15053;48.618;10.024;2023-01-20T06:42:30;93765.91;;;-0.74;91.92
27643;BME280;15053;48.618;10.024;2023-01-20T06:44:57;93758.75;;;-0.77;92.23
27643;BME280;15053;48.618;10.024;2023-01-20T06:47:23;93767.47;;;-0.73;92.67
27643;BME280;15053;48.618;10.024;2023-01-20T06:49:50;93768.47;;;-0.74;92.12
27643;BME280;15053;48.618;10.024;2023-01-20T06:52:16;93767.03;;;-0.70;91.86
27643;BME280;15053;48.618;10.024;2023-01-20T06:54:43;93773.69;;;-0.69;92.56
27643;BME280;15053;48.618;10.024;2023-01-20T06:57:09;93780.59;;;-0.70;93.05
27643;BME280;15053;48.618;10.024;2023-01-20T06:59:35;93778.25;;;-0.71;91.93
27643;BME280;15053;48.618;10.024;2023-01-20T07:02:02;93777.94;;;-0.75;92.21
27643;BME280;15053;48.618;10.024;2023-01-20T07:04:28;93788.19;;;-0.75;92.40
27643;BME280;15053;48.618;10.024;2023-01-20T07:06:55;93788.19;;;-0.75;92.73
27643;BME280;15053;48.618;10.024;2023-01-20T07:09:21;93796.13;;;-0.71;92.44
27643;BME280;15053;48.618;10.024;2023-01-20T07:11:48;93799.16;;;-0.74;92.14
27643;BME280;15053;48.618;10.024;2023-01-20T07:14:14;93801.72;;;-0.74;93.08
27643;BME280;15053;48.618;10.024;2023-01-20T07:16:41;93805.28;;;-0.75;93.02
27643;BME280;15053;48.618;10.024;2023-01-20T07:19:07;93816.50;;;-0.76;92.43
27643;BME280;15053;48.618;10.024;2023-01-20T07:21:34;93818.50;;;-0.78;92.94
27643;BME280;15053;48.618;10.024;2023-01-20T07:24:00;93813.84;;;-0.81;92.16
27643;BME280;15053;48.618;10.024;2023-01-20T07:26:27;93820.06;;;-0.77;93.07
27643;BME280;15053;48.618;10.024;2023-01-20T07:28:56;93812.88;;;-0.80;93.18
27643;BME280;15053;48.618;10.024;2023-01-20T07:31:25;93824.16;;;-0.76;93.46
27643;BME280;15053;48.618;10.024;2023-01-20T07:33:56;93822.94;;;-0.74;92.80
27643;BME280;15053;48.618;10.024;2023-01-20T07:36:23;93839.59;;;-0.71;93.03
27643;BME280;15053;48.618;10.024;2023-01-20T07:38:50;93834.28;;;-0.70;93.45
27643;BME280;15053;48.618;10.024;2023-01-20T07:41:18;93833.56;;;-0.65;93.14
27643;BME280;15053;48.618;10.024;2023-01-20T07:43:48;93840.25;;;-0.64;93.00
27643;BME280;15053;48.618;10.024;2023-01-20T07:46:15;93841.03;;;-0.64;93.28
27643;BME280;15053;48.618;10.024;2023-01-20T07:48:41;93836.22;;;-0.60;92.26
27643;BME280;15053;48.618;10.024;2023-01-20T07:51:09;93842.44;;;-0.56;92.41
27643;BME280;15053;48.618;10.024;2023-01-20T07:53:39;93851.09;;;-0.57;92.43
27643;BME280;15053;48.618;10.024;2023-01-20T07:56:11;93850.31;;;-0.57;92.33
27643;BME280;15053;48.618;10.024;2023-01-20T07:58:38;93863.88;;;-0.57;92.78
27643;BME280;15053;48.618;10.024;2023-01-20T08:01:09;93862.91;;;-0.56;93.19
27643;BME280;15053;48.618;10.024;2023-01-20T08:03:36;93862.91;;;-0.56;93.34
27643;BME280;15053;48.618;10.024;2023-01-20T08:06:04;93866.44;;;-0.57;92.32
27643;BME280;15053;48.618;10.024;2023-01-20T08:08:31;93864.66;;;-0.56;92.65
27643;BME280;15053;48.618;10.024;2023-01-20T08:10:59;93866.91;;;-0.60;93.17
27643;BME280;15053;48.618;10.024;2023-01-20T08:13:27;93870.66;;;-0.51;93.06
27643;BME280;15053;48.618;10.024;2023-01-20T08:15:54;93878.97;;;-0.44;93.34
27643;BME280;15053;48.618;10.024;2023-01-20T08:18:21;93875.94;;;-0.41;92.72
27643;BME280;15053;48.618;10.024;2023-01-20T08:20:47;93877.16;;;-0.32;92.79
27643;BME280;15053;48.618;10.024;2023-01-20T08:23:13;93876.22;;;-0.26;92.34
27643;BME280;15053;48.618;10.024;2023-01-20T08:25:40;93876.84;;;-0.19;93.36
27643;BME280;15053;48.618;10.024;2023-01-20T08:28:06;93876.47;;;-0.11;92.57
27643;BME280;15053;48.618;10.024;2023-01-20T08:30:33;93879.91;;;-0.05;92.31
27643;BME280;15053;48.618;10.024;2023-01-20T08:33:00;93877.28;;;0.07;92.98
27643;BME280;15053;48.618;10.024;2023-01-20T08:35:26;93880.56;;;0.19;92.52
27643;BME280;15053;48.618;10.024;2023-01-20T08:37:53;93884.47;;;0.38;91.63
27643;BME280;15053;48.618;10.024;2023-01-20T08:40:19;93887.41;;;0.46;91.36
27643;BME280;15053;48.618;10.024;2023-01-20T08:42:46;93894.78;;;0.59;91.80
27643;BME280;15053;48.618;10.024;2023-01-20T08:45:13;93891.28;;;0.66;90.77
27643;BME280;15053;48.618;10.024;2023-01-20T08:47:41;93892.34;;;0.70;90.24
27643;BME280;15053;48.618;10.024;2023-01-20T08:50:11;93899.50;;;0.68;89.91
27643;BME280;15053;48.618;10.024;2023-01-20T08:52:38;93906.34;;;0.62;88.90
27643;BME280;15053;48.618;10.024;2023-01-20T08:55:05;93902.00;;;0.63;89.67
27643;BME280;15053;48.618;10.024;2023-01-20T08:57:32;93913.09;;;0.68;88.92
27643;BME280;15053;48.618;10.024;2023-01-20T08:59:58;93913.75;;;0.80;89.47
27643;BME280;15053;48.618;10.024;2023-01-20T09:02:25;93916.16;;;0.87;88.99
27643;BME280;15053;48.618;10.024;2023-01-20T09:04:51;93919.19;;;0.84;88.53
27643;BME280;15053;48.618;10.024;2023-01-20T09:07:18;93908.88;;;0.79;87.69
27643;BME280;15053;48.618;10.024;2023-01-20T09:09:46;93912.84;;;0.70;88.09
27643;BME280;15053;48.618;10.024;2023-01-20T09:12:13;93930.47;;;0.66;87.86
27643;BME280;15053;48.618;10.024;2023-01-20T09:14:39;93932.09;;;0.55;88.05
27643;BME280;15053;48.618;10.024;2023-01-20T09:17:06;93932.81;;;0.51;87.89
27643;BME280;15053;48.618;10.024;2023-01-20T09:19:32;93935.81;;;0.48;88.41
27643;BME280;15053;48.618;10.024;2023-01-20T09:21:59;93952.75;;;0.49;87.65
27643;BME280;15053;48.618;10.024;2023-01-20T09:24:25;93942.97;;;0.46;86.82
27643;BME280;15053;48.618;10.024;2023-01-20T09:26:51;93954.91;;;0.40;86.96
27643;BME280;15053;48.618;10.024;2023-01-20T09:29:19;93945.97;;;0.26;87.05
27643;BME280;15053;48.618;10.024;2023-01-20T09:34:17;93957.22;;;0.25;86.89
27643;BME280;15053;48.618;10.024;2023-01-20T09:36:50;93967.00;;;0.28;86.92
27643;BME280;15053;48.618;10.024;2023-01-20T09:39:17;93973.22;;;0.32;87.25
27643;BME280;15053;48.618;10.024;2023-01-20T09:45:23;93981.97;;;0.36;86.00
27643;BME280;15053;48.618;10.024;2023-01-20T09:48:14;93979.19;;;0.38;86.25
27643;BME280;15053;48.618;10.024;2023-01-20T09:51:06;93980.44;;;0.35;86.54
27643;BME280;15053;48.618;10.024;2023-01-20T09:54:02;93987.88;;;0.37;85.82
27643;BME280;15053;48.618;10.024;2023-01-20T09:56:36;93984.25;;;0.33;85.68
27643;BME280;15053;48.618;10.024;2023-01-20T09:59:51;93984.69;;;0.30;86.30
27643;BME280;15053;48.618;10.024;2023-01-20T10:02:24;93986.69;;;0.28;85.32
27643;BME280;15053;48.618;10.024;2023-01-20T10:04:57;93994.38;;;0.28;85.66
27643;BME280;15053;48.618;10.024;2023-01-20T10:10:34;93993.84;;;0.26;85.69
27643;BME280;15053;48.618;10.024;2023-01-20T10:12:55;93996.19;;;0.27;85.26
27643;BME280;15053;48.618;10.024;2023-01-20T10:15:32;94000.53;;;0.27;85.87
27643;BME280;15053;48.618;10.024;2023-01-20T10:18:12;93983.59;;;0.26;85.91
27643;BME280;15053;48.618;10.024;2023-01-20T10:20:47;93997.22;;;0.43;85.89
27643;BME280;15053;48.618;10.024;2023-01-20T10:23:42;94000.38;;;0.50;85.70
27643;BME280;15053;48.618;10.024;2023-01-20T10:26:16;93994.97;;;0.46;85.29
27643;BME280;15053;48.618;10.024;2023-01-20T10:29:10;94001.34;;;0.44;84.57
27643;BME280;15053;48.618;10.024;2023-01-20T10:31:55;93994.56;;;0.38;85.38
27643;BME280;15053;48.618;10.024;2023-01-20T10:34:29;94006.91;;;0.41;84.40
27643;BME280;15053;48.618;10.024;2023-01-20T10:37:08;94000.22;;;0.40;84.93
27643;BME280;15053;48.618;10.024;2023-01-20T10:39:47;93999.13;;;0.36;83.99
27643;BME280;15053;48.618;10.024;2023-01-20T10:42:16;94000.06;;;0.30;83.31
27643;BME280;15053;48.618;10.024;2023-01-20T10:44:43;93999.03;;;0.31;83.42
27643;BME280;15053;48.618;10.024;2023-01-20T10:47:15;94003.50;;;0.35;83.54
27643;BME280;15053;48.618;10.024;2023-01-20T10:50:46;94014.03;;;0.39;83.27
27643;BME280;15053;48.618;10.024;2023-01-20T10:55:44;94003.56;;;0.40;83.40
27643;BME280;15053;48.618;10.024;2023-01-20T10:58:24;94007.00;;;0.46;82.61
27643;BME280;15053;48.618;10.024;2023-01-20T11:00:51;94007.63;;;0.53;83.00
27643;BME280;15053;48.618;10.024;2023-01-20T11:03:20;94003.69;;;0.62;83.40
27643;BME280;15053;48.618;10.024;2023-01-20T11:05:48;93997.19;;;0.71;82.54
27643;BME280;15053;48.618;10.024;2023-01-20T11:08:27;94003.38;;;0.75;82.32
27643;BME280;15053;48.618;10.024;2023-01-20T11:10:59;94006.19;;;0.74;81.86
27643;BME280;15053;48.618;10.024;2023-01-20T11:13:30;94008.03;;;0.78;81.57
27643;BME280;15053;48.618;10.024;2023-01-20T11:16:01;94010.75;;;0.88;81.20
27643;BME280;15053;48.618;10.024;2023-01-20T11:18:30;94013.72;;;0.97;79.91
27643;BME280;15053;48.618;10.024;2023-01-20T11:21:00;94014.81;;;1.01;79.28
27643;BME280;15053;48.618;10.024;2023-01-20T11:23:48;94011.47;;;1.00;78.75
27643;BME280;15053;48.618;10.024;2023-01-20T11:26:22;94012.53;;;1.04;78.74
27643;BME280;15053;48.618;10.024;2023-01-20T11:28:58;94016.97;;;1.09;78.87
27643;BME280;15053;48.618;10.024;2023-01-20T11:34:47;94010.53;;;1.23;78.38
27643;BME280;15053;48.618;10.024;2023-01-20T11:36:50;94014.31;;;1.37;77.58
27643;BME280;15053;48.618;10.024;2023-01-20T11:40:01;94016.69;;;1.44;77.39
27643;BME280;15053;48.618;10.024;2023-01-20T11:42:31;94019.41;;;1.54;77.32
27643;BME280;15053;48.618;10.024;2023-01-20T11:45:22;94015.88;;;1.60;76.82
27643;BME280;15053;48.618;10.024;2023-01-20T11:50:34;94019.56;;;1.86;76.20
27643;BME280;15053;48.618;10.024;2023-01-20T11:53:27;94002.78;;;2.00;74.86
27643;BME280;15053;48.618;10.024;2023-01-20T11:56:00;94014.16;;;2.30;74.13
27643;BME280;15053;48.618;10.024;2023-01-20T11:58:32;94011.69;;;2.41;73.14
27643;BME280;15053;48.618;10.024;2023-01-20T12:01:02;94006.06;;;2.44;72.55
27643;BME280;15053;48.618;10.024;2023-01-20T12:03:49;94011.09;;;2.33;72.32
27643;BME280;15053;48.618;10.024;2023-01-20T12:06:23;94006.22;;;2.32;71.85
27643;BME280;15053;48.618;10.024;2023-01-20T12:08:59;94014.34;;;2.24;71.34
27643;BME280;15053;48.618;10.024;2023-01-20T12:11:32;94009.38;;;2.17;72.14
27643;BME280;15053;48.618;10.024;2023-01-20T12:19:46;94017.69;;;2.24;72.23
27643;BME280;15053;48.618;10.024;2023-01-20T12:22:23;94022.22;;;2.17;72.12
27643;BME280;15053;48.618;10.024;2023-01-20T12:24:59;94020.63;;;2.11;72.33
27643;BME280;15053;48.618;10.024;2023-01-20T12:27:53;94020.56;;;2.06;72.53
27643;BME280;15053;48.618;10.024;2023-01-20T12:30:36;94023.06;;;2.01;72.67
27643;BME280;15053;48.618;10.024;2023-01-20T12:33:17;94019.44;;;1.97;73.25
27643;BME280;15053;48.618;10.024;2023-01-20T12:36:00;94017.81;;;1.91;73.34
27643;BME280;15053;48.618;10.024;2023-01-20T12:38:39;94020.81;;;1.83;73.18
27643;BME280;15053;48.618;10.024;2023-01-20T12:41:14;94028.94;;;1.75;73.70
27643;BME280;15053;48.618;10.024;2023-01-20T12:46:30;94035.41;;;1.61;73.54
27643;BME280;15053;48.618;10.024;2023-01-20T12:49:20;94045.06;;;1.54;74.40
27643;BME280;15053;48.618;10.024;2023-01-20T12:52:13;94047.66;;;1.54;74.60
27643;BME280;15053;48.618;10.024;2023-01-20T12:54:54;94037.38;;;1.54;74.64
27643;BME280;15053;48.618;10.024;2023-01-20T12:57:42;94044.03;;;1.55;74.54
27643;BME280;15053;48.618;10.024;2023-01-20T13:02:59;94034.19;;;1.47;74.37
27643;BME280;15053;48.618;10.024;2023-01-20T13:08:21;94046.53;;;1.50;74.19
27643;BME280;15053;48.618;10.024;2023-01-20T13:11:13;94045.22;;;1.47;74.37
27643;BME280;15053;48.618;10.024;2023-01-20T13:13:58;94049.25;;;1.43;74.02
27643;BME280;15053;48.618;10.024;2023-01-20T13:16:36;94045.84;;;1.38;74.48
27643;BME280;15053;48.618;10.024;2023-01-20T13:19:14;94045.56;;;1.34;74.43
27643;BME280;15053;48.618;10.024;2023-01-20T13:21:41;94052.41;;;1.29;74.87
27643;BME280;15053;48.618;10.024;2023-01-20T13:24:15;94048.34;;;1.33;74.40
27643;BME280;15053;48.618;10.024;2023-01-20T13:26:45;94055.56;;;1.36;74.93
27643;BME280;15053;48.618;10.024;2023-01-20T13:32:43;94055.19;;;1.44;74.87
27643;BME280;15053;48.618;10.024;2023-01-20T13:37:53;94057.75;;;1.44;75.50
27643;BME280;15053;48.618;10.024;2023-01-20T13:43:04;94065.59;;;1.54;75.67
27643;BME280;15053;48.618;10.024;2023-01-20T13:48:34;94067.44;;;1.58;75.75
27643;BME280;15053;48.618;10.024;2023-01-20T13:53:46;94064.63;;;1.60;76.13
27643;BME280;15053;48.618;10.024;2023-01-20T13:56:23;94066.72;;;1.63;76.26
27643;BME280;15053;48.618;10.024;2023-01-20T13:58:50;94066.72;;;1.63;76.24
27643;BME280;15053;48.618;10.024;2023-01-20T14:01:17;94070.34;;;1.62;76.01
27643;BME280;15053;48.618;10.024;2023-01-20T14:04:06;94072.81;;;1.57;75.88
27643;BME280;15053;48.618;10.024;2023-01-20T14:06:33;94068.31;;;1.47;75.28
27643;BME280;15053;48.618;10.024;2023-01-20T14:09:01;94082.47;;;1.50;76.14
27643;BME280;15053;48.618;10.024;2023-01-20T14:11:28;94079.84;;;1.45;76.24
27643;BME280;15053;48.618;10.024;2023-01-20T14:16:25;94086.03;;;1.49;75.68
27643;BME280;15053;48.618;10.024;2023-01-20T14:18:54;94085.50;;;1.47;75.85
27643;BME280;15053;48.618;10.024;2023-01-20T14:21:24;94090.56;;;1.42;75.69
27643;BME280;15053;48.618;10.024;2023-01-20T14:23:51;94084.03;;;1.34;75.57
27643;BME280;15053;48.618;10.024;2023-01-20T14:26:22;94090.88;;;1.29;76.36